sensor_id;sensor_type;location;lat;lon;timestamp;P1;durP1;ratioP1;P2;durP2;ratioP2
62332;SDS011;48624;49.812;8.562;2023-02-26T00:00:13;4.47;;;2.83;;
62332;SDS011;48624;49.812;8.562;2023-02-26T00:02:45;7.80;;;3.30;;
62332;SDS011;48624;49.812;8.562;2023-02-26T00:05:12;5.27;;;2.83;;
62332;SDS011;48624;49.812;8.562;2023-02-26T00:07:38;3.93;;;2.37;;
62332;SDS011;48624;49.812;8.562;2023-02-26T00:10:04;4.20;;;3.00;;
62332;SDS011;48624;49.812;8.562;2023-02-26T00:12:30;6.77;;;2.97;;
62332;SDS011;48624;49.812;8.562;2023-02-26T00:14:56;6.20;;;3.90;;
62332;SDS011;48624;49.812;8.562;2023-02-26T00:17:25;9.43;;;4.07;;
62332;SDS011;48624;49.812;8.562;2023-02-26T00:19:55;7.53;;;3.03;;
62332;SDS011;48624;49.812;8.562;2023-02-26T00:22:22;5.10;;;3.13;;
62332;SDS011;48624;49.812;8.562;2023-02-26T00:24:49;4.47;;;3.20;;
62332;SDS011;48624;49.812;8.562;2023-02-26T00:27:14;5.10;;;3.07;;
62332;SDS011;48624;49.812;8.562;2023-02-26T00:29:40;6.27;;;2.97;;
62332;SDS011;48624;49.812;8.562;2023-02-26T00:32:06;5.50;;;2.97;;
62332;SDS011;48624;49.812;8.562;2023-02-26T00:34:34;3.57;;;2.63;;
62332;SDS011;48624;49.812;8.562;2023-02-26T00:39:56;5.93;;;2.47;;
62332;SDS011;48624;49.812;8.562;2023-02-26T00:42:31;4.97;;;2.80;;
62332;SDS011;48624;49.812;8.562;2023-02-26T00:44:57;4.73;;;2.37;;
62332;SDS011;48624;49.812;8.562;2023-02-26T00:50:28;4.40;;;2.60;;
62332;SDS011;48624;49.812;8.562;2023-02-26T00:55:46;3.17;;;2.10;;
62332;SDS011;48624;49.812;8.562;2023-02-26T00:58:11;4.43;;;2.27;;
62332;SDS011;48624;49.812;8.562;2023-02-26T01:00:36;7.20;;;2.90;;
62332;SDS011;48624;49.812;8.562;2023-02-26T01:03:02;4.60;;;3.00;;
62332;SDS011;48624;49.812;8.562;2023-02-26T01:05:28;4.57;;;2.10;;
62332;SDS011;48624;49.812;8.562;2023-02-26T01:10:43;5.00;;;2.80;;
62332;SDS011;48624;49.812;8.562;2023-02-26T01:13:09;3.77;;;2.27;;
62332;SDS011;48624;49.812;8.562;2023-02-26T01:15:34;4.77;;;2.07;;
62332;SDS011;48624;49.812;8.562;2023-02-26T01:18:04;3.83;;;2.07;;
62332;SDS011;48624;49.812;8.562;2023-02-26T01:20:37;3.70;;;2.33;;
62332;SDS011;48624;49.812;8.562;2023-02-26T01:23:10;4.23;;;1.97;;
62332;SDS011;48624;49.812;8.562;2023-02-26T01:25:43;5.43;;;1.90;;
62332;SDS011;48624;49.812;8.562;2023-02-26T01:28:13;5.53;;;2.17;;
62332;SDS011;48624;49.812;8.562;2023-02-26T01:30:39;5.77;;;2.40;;
62332;SDS011;48624;49.812;8.562;2023-02-26T01:33:09;3.10;;;2.03;;
62332;SDS011;48624;49.812;8.562;2023-02-26T01:41:14;8.53;;;4.40;;
62332;SDS011;48624;49.812;8.562;2023-02-26T01:44:04;8.80;;;3.63;;
62332;SDS011;48624;49.812;8.562;2023-02-26T01:49:47;5.87;;;3.43;;
62332;SDS011;48624;49.812;8.562;2023-02-26T01:53:03;5.63;;;2.93;;
62332;SDS011;48624;49.812;8.562;2023-02-26T01:55:21;7.07;;;3.77;;
62332;SDS011;48624;49.812;8.562;2023-02-26T01:57:49;3.53;;;2.73;;
62332;SDS011;48624;49.812;8.562;2023-02-26T02:00:16;5.37;;;2.67;;
62332;SDS011;48624;49.812;8.562;2023-02-26T02:02:43;5.47;;;2.47;;
62332;SDS011;48624;49.812;8.562;2023-02-26T02:05:21;7.00;;;2.57;;
62332;SDS011;48624;49.812;8.562;2023-02-26T02:07:53;6.23;;;2.47;;
62332;SDS011;48624;49.812;8.562;2023-02-26T02:10:20;4.90;;;2.57;;
62332;SDS011;48624;49.812;8.562;2023-02-26T02:19:16;4.30;;;2.47;;
62332;SDS011;48624;49.812;8.562;2023-02-26T02:30:00;5.20;;;2.53;;
62332;SDS011;48624;49.812;8.562;2023-02-26T02:32:46;8.80;;;3.20;;
62332;SDS011;48624;49.812;8.562;2023-02-26T02:35:17;6.77;;;2.63;;
62332;SDS011;48624;49.812;8.562;2023-02-26T02:37:54;6.63;;;2.80;;
62332;SDS011;48624;49.812;8.562;2023-02-26T02:40:25;3.67;;;2.60;;
62332;SDS011;48624;49.812;8.562;2023-02-26T02:42:59;4.00;;;2.30;;
62332;SDS011;48624;49.812;8.562;2023-02-26T02:45:35;6.23;;;2.80;;
62332;SDS011;48624;49.812;8.562;2023-02-26T02:48:11;6.37;;;2.87;;
62332;SDS011;48624;49.812;8.562;2023-02-26T02:50:47;8.33;;;3.10;;
62332;SDS011;48624;49.812;8.562;2023-02-26T02:53:17;5.57;;;2.10;;
62332;SDS011;48624;49.812;8.562;2023-02-26T02:56:26;7.67;;;3.00;;
62332;SDS011;48624;49.812;8.562;2023-02-26T02:58:38;3.43;;;2.50;;
62332;SDS011;48624;49.812;8.562;2023-02-26T03:01:08;5.60;;;2.13;;
62332;SDS011;48624;49.812;8.562;2023-02-26T03:03:44;4.63;;;2.37;;
62332;SDS011;48624;49.812;8.562;2023-02-26T03:06:20;3.33;;;2.10;;
62332;SDS011;48624;49.812;8.562;2023-02-26T03:08:45;5.03;;;1.83;;
62332;SDS011;48624;49.812;8.562;2023-02-26T03:11:12;4.63;;;2.20;;
62332;SDS011;48624;49.812;8.562;2023-02-26T03:13:37;3.17;;;1.70;;
62332;SDS011;48624;49.812;8.562;2023-02-26T03:16:21;6.10;;;2.63;;
62332;SDS011;48624;49.812;8.562;2023-02-26T03:21:37;4.07;;;2.13;;
62332;SDS011;48624;49.812;8.562;2023-02-26T03:24:16;3.80;;;2.30;;
62332;SDS011;48624;49.812;8.562;2023-02-26T03:26:51;6.53;;;2.30;;
62332;SDS011;48624;49.812;8.562;2023-02-26T03:29:31;4.00;;;1.97;;
62332;SDS011;48624;49.812;8.562;2023-02-26T03:32:13;4.40;;;2.00;;
62332;SDS011;48624;49.812;8.562;2023-02-26T03:34:51;4.87;;;2.10;;
62332;SDS011;48624;49.812;8.562;2023-02-26T03:39:57;6.50;;;2.13;;
62332;SDS011;48624;49.812;8.562;2023-02-26T03:42:32;5.27;;;2.07;;
62332;SDS011;48624;49.812;8.562;2023-02-26T03:45:11;5.67;;;1.57;;
62332;SDS011;48624;49.812;8.562;2023-02-26T03:47:41;3.20;;;1.40;;
62332;SDS011;48624;49.812;8.562;2023-02-26T03:52:44;4.70;;;1.33;;
62332;SDS011;48624;49.812;8.562;2023-02-26T03:55:29;3.57;;;1.77;;
62332;SDS011;48624;49.812;8.562;2023-02-26T03:57:59;5.30;;;1.80;;
62332;SDS011;48624;49.812;8.562;2023-02-26T04:00:25;2.67;;;1.40;;
62332;SDS011;48624;49.812;8.562;2023-02-26T04:05:38;5.00;;;1.53;;
62332;SDS011;48624;49.812;8.562;2023-02-26T04:08:09;7.83;;;2.07;;
62332;SDS011;48624;49.812;8.562;2023-02-26T04:10:43;3.10;;;1.77;;
62332;SDS011;48624;49.812;8.562;2023-02-26T04:13:18;2.80;;;1.40;;
62332;SDS011;48624;49.812;8.562;2023-02-26T04:15:44;4.10;;;1.50;;
62332;SDS011;48624;49.812;8.562;2023-02-26T04:18:09;3.17;;;1.30;;
62332;SDS011;48624;49.812;8.562;2023-02-26T04:20:35;7.73;;;1.83;;
62332;SDS011;48624;49.812;8.562;2023-02-26T04:23:00;7.40;;;1.73;;
62332;SDS011;48624;49.812;8.562;2023-02-26T04:25:26;3.60;;;1.40;;
62332;SDS011;48624;49.812;8.562;2023-02-26T04:27:51;3.17;;;1.37;;
62332;SDS011;48624;49.812;8.562;2023-02-26T04:30:16;1.60;;;1.27;;
62332;SDS011;48624;49.812;8.562;2023-02-26T04:32:42;3.77;;;1.33;;
62332;SDS011;48624;49.812;8.562;2023-02-26T04:35:07;4.83;;;1.50;;
62332;SDS011;48624;49.812;8.562;2023-02-26T04:37:36;2.10;;;1.10;;
62332;SDS011;48624;49.812;8.562;2023-02-26T04:40:01;1.73;;;1.10;;
62332;SDS011;48624;49.812;8.562;2023-02-26T04:42:28;4.87;;;1.50;;
62332;SDS011;48624;49.812;8.562;2023-02-26T04:44:53;4.23;;;1.37;;
62332;SDS011;48624;49.812;8.562;2023-02-26T04:47:19;5.70;;;1.53;;
62332;SDS011;48624;49.812;8.562;2023-02-26T04:49:44;5.13;;;1.57;;
62332;SDS011;48624;49.812;8.562;2023-02-26T04:52:09;6.60;;;1.70;;
62332;SDS011;48624;49.812;8.562;2023-02-26T04:54:34;1.57;;;1.03;;
62332;SDS011;48624;49.812;8.562;2023-02-26T04:57:00;4.53;;;1.60;;
62332;SDS011;48624;49.812;8.562;2023-02-26T04:59:25;1.23;;;0.90;;
62332;SDS011;48624;49.812;8.562;2023-02-26T05:01:51;4.97;;;1.43;;
62332;SDS011;48624;49.812;8.562;2023-02-26T05:04:16;5.47;;;1.87;;
62332;SDS011;48624;49.812;8.562;2023-02-26T05:06:41;2.37;;;1.47;;
62332;SDS011;48624;49.812;8.562;2023-02-26T05:09:07;6.73;;;2.03;;
62332;SDS011;48624;49.812;8.562;2023-02-26T05:11:32;5.17;;;1.43;;
62332;SDS011;48624;49.812;8.562;2023-02-26T05:13:57;4.20;;;1.43;;
62332;SDS011;48624;49.812;8.562;2023-02-26T05:16:23;1.83;;;1.30;;
62332;SDS011;48624;49.812;8.562;2023-02-26T05:18:48;4.63;;;1.80;;
62332;SDS011;48624;49.812;8.562;2023-02-26T05:21:14;3.43;;;1.30;;
62332;SDS011;48624;49.812;8.562;2023-02-26T05:23:40;4.80;;;1.93;;
62332;SDS011;48624;49.812;8.562;2023-02-26T05:26:06;3.03;;;1.60;;
62332;SDS011;48624;49.812;8.562;2023-02-26T05:28:31;4.00;;;1.87;;
62332;SDS011;48624;49.812;8.562;2023-02-26T05:30:57;5.20;;;1.70;;
62332;SDS011;48624;49.812;8.562;2023-02-26T05:33:23;7.57;;;2.07;;
62332;SDS011;48624;49.812;8.562;2023-02-26T05:35:52;3.97;;;1.67;;
62332;SDS011;48624;49.812;8.562;2023-02-26T05:38:17;4.07;;;1.80;;
62332;SDS011;48624;49.812;8.562;2023-02-26T05:40:43;4.23;;;1.67;;
62332;SDS011;48624;49.812;8.562;2023-02-26T05:43:08;6.33;;;2.23;;
62332;SDS011;48624;49.812;8.562;2023-02-26T05:45:34;4.97;;;1.70;;
62332;SDS011;48624;49.812;8.562;2023-02-26T05:47:59;3.93;;;1.70;;
62332;SDS011;48624;49.812;8.562;2023-02-26T05:50:25;6.90;;;1.90;;
62332;SDS011;48624;49.812;8.562;2023-02-26T05:52:51;4.40;;;1.73;;
62332;SDS011;48624;49.812;8.562;2023-02-26T05:55:16;2.00;;;1.80;;
62332;SDS011;48624;49.812;8.562;2023-02-26T05:57:42;6.60;;;2.40;;
62332;SDS011;48624;49.812;8.562;2023-02-26T06:00:08;9.73;;;2.27;;
62332;SDS011;48624;49.812;8.562;2023-02-26T06:02:37;3.47;;;1.90;;
62332;SDS011;48624;49.812;8.562;2023-02-26T06:05:02;3.37;;;2.00;;
62332;SDS011;48624;49.812;8.562;2023-02-26T06:07:28;3.37;;;2.13;;
62332;SDS011;48624;49.812;8.562;2023-02-26T06:09:53;6.17;;;2.13;;
62332;SDS011;48624;49.812;8.562;2023-02-26T06:12:18;4.17;;;2.23;;
62332;SDS011;48624;49.812;8.562;2023-02-26T06:14:44;6.63;;;2.50;;
62332;SDS011;48624;49.812;8.562;2023-02-26T06:17:09;7.97;;;2.20;;
62332;SDS011;48624;49.812;8.562;2023-02-26T06:19:35;4.23;;;2.37;;
62332;SDS011;48624;49.812;8.562;2023-02-26T06:22:00;7.30;;;4.30;;
62332;SDS011;48624;49.812;8.562;2023-02-26T06:24:25;4.97;;;3.17;;
62332;SDS011;48624;49.812;8.562;2023-02-26T06:26:51;5.87;;;2.97;;
62332;SDS011;48624;49.812;8.562;2023-02-26T06:29:16;8.80;;;3.43;;
62332;SDS011;48624;49.812;8.562;2023-02-26T06:31:44;5.33;;;2.80;;
62332;SDS011;48624;49.812;8.562;2023-02-26T06:34:10;5.23;;;2.50;;
62332;SDS011;48624;49.812;8.562;2023-02-26T06:36:38;6.23;;;2.43;;
62332;SDS011;48624;49.812;8.562;2023-02-26T06:39:03;4.87;;;2.80;;
62332;SDS011;48624;49.812;8.562;2023-02-26T06:41:32;7.20;;;2.80;;
62332;SDS011;48624;49.812;8.562;2023-02-26T06:43:58;4.97;;;2.83;;
62332;SDS011;48624;49.812;8.562;2023-02-26T06:46:23;9.60;;;3.07;;
62332;SDS011;48624;49.812;8.562;2023-02-26T06:48:49;5.77;;;3.17;;
62332;SDS011;48624;49.812;8.562;2023-02-26T06:51:14;10.43;;;2.97;;
62332;SDS011;48624;49.812;8.562;2023-02-26T06:53:39;3.57;;;2.53;;
62332;SDS011;48624;49.812;8.562;2023-02-26T06:56:05;4.63;;;2.53;;
62332;SDS011;48624;49.812;8.562;2023-02-26T06:58:30;9.70;;;3.47;;
62332;SDS011;48624;49.812;8.562;2023-02-26T07:00:56;4.10;;;2.50;;
62332;SDS011;48624;49.812;8.562;2023-02-26T07:03:21;3.60;;;3.03;;
62332;SDS011;48624;49.812;8.562;2023-02-26T07:05:46;6.30;;;2.83;;
62332;SDS011;48624;49.812;8.562;2023-02-26T07:08:12;7.70;;;3.30;;
62332;SDS011;48624;49.812;8.562;2023-02-26T07:10:38;7.10;;;3.23;;
62332;SDS011;48624;49.812;8.562;2023-02-26T07:13:04;7.57;;;3.30;;
62332;SDS011;48624;49.812;8.562;2023-02-26T07:15:29;4.00;;;2.27;;
62332;SDS011;48624;49.812;8.562;2023-02-26T07:17:55;7.93;;;2.67;;
62332;SDS011;48624;49.812;8.562;2023-02-26T07:20:22;4.30;;;2.23;;
62332;SDS011;48624;49.812;8.562;2023-02-26T07:22:48;7.63;;;1.90;;
62332;SDS011;48624;49.812;8.562;2023-02-26T07:25:14;6.47;;;1.90;;
62332;SDS011;48624;49.812;8.562;2023-02-26T07:27:40;7.33;;;2.57;;
62332;SDS011;48624;49.812;8.562;2023-02-26T07:30:06;14.27;;;11.27;;
62332;SDS011;48624;49.812;8.562;2023-02-26T07:32:32;5.30;;;2.10;;
62332;SDS011;48624;49.812;8.562;2023-02-26T07:34:58;7.23;;;2.47;;
62332;SDS011;48624;49.812;8.562;2023-02-26T07:37:24;4.40;;;2.73;;
62332;SDS011;48624;49.812;8.562;2023-02-26T07:39:50;5.77;;;2.87;;
62332;SDS011;48624;49.812;8.562;2023-02-26T07:42:16;1.60;;;1.20;;
62332;SDS011;48624;49.812;8.562;2023-02-26T07:44:41;4.10;;;3.80;;
62332;SDS011;48624;49.812;8.562;2023-02-26T07:47:07;3.73;;;1.77;;
62332;SDS011;48624;49.812;8.562;2023-02-26T07:49:33;4.03;;;2.07;;
62332;SDS011;48624;49.812;8.562;2023-02-26T07:51:59;5.37;;;2.10;;
62332;SDS011;48624;49.812;8.562;2023-02-26T07:54:26;1.23;;;1.13;;
62332;SDS011;48624;49.812;8.562;2023-02-26T07:56:52;2.80;;;2.03;;
62332;SDS011;48624;49.812;8.562;2023-02-26T07:59:17;5.30;;;2.07;;
62332;SDS011;48624;49.812;8.562;2023-02-26T08:01:43;2.63;;;1.30;;
62332;SDS011;48624;49.812;8.562;2023-02-26T08:04:08;4.30;;;1.20;;
62332;SDS011;48624;49.812;8.562;2023-02-26T08:06:34;2.30;;;1.17;;
62332;SDS011;48624;49.812;8.562;2023-02-26T08:09:00;3.10;;;1.83;;
62332;SDS011;48624;49.812;8.562;2023-02-26T08:11:25;2.33;;;1.73;;
62332;SDS011;48624;49.812;8.562;2023-02-26T08:13:51;2.60;;;1.30;;
62332;SDS011;48624;49.812;8.562;2023-02-26T08:16:16;4.07;;;1.53;;
62332;SDS011;48624;49.812;8.562;2023-02-26T08:18:41;2.83;;;1.40;;
62332;SDS011;48624;49.812;8.562;2023-02-26T08:21:07;4.07;;;1.70;;
62332;SDS011;48624;49.812;8.562;2023-02-26T08:23:32;3.33;;;1.90;;
62332;SDS011;48624;49.812;8.562;2023-02-26T08:26:01;3.10;;;1.23;;
62332;SDS011;48624;49.812;8.562;2023-02-26T08:28:28;2.70;;;1.70;;
62332;SDS011;48624;49.812;8.562;2023-02-26T08:30:54;5.30;;;1.67;;
62332;SDS011;48624;49.812;8.562;2023-02-26T08:33:20;3.13;;;1.27;;
62332;SDS011;48624;49.812;8.562;2023-02-26T08:35:45;4.47;;;1.60;;
62332;SDS011;48624;49.812;8.562;2023-02-26T08:38:11;8.47;;;7.73;;
62332;SDS011;48624;49.812;8.562;2023-02-26T08:40:36;3.03;;;1.07;;
62332;SDS011;48624;49.812;8.562;2023-02-26T08:43:03;1.80;;;1.37;;
62332;SDS011;48624;49.812;8.562;2023-02-26T08:45:28;1.60;;;1.20;;
62332;SDS011;48624;49.812;8.562;2023-02-26T08:47:54;2.60;;;1.50;;
62332;SDS011;48624;49.812;8.562;2023-02-26T08:50:20;3.23;;;1.70;;
62332;SDS011;48624;49.812;8.562;2023-02-26T08:52:45;3.27;;;1.63;;
62332;SDS011;48624;49.812;8.562;2023-02-26T08:55:11;3.50;;;1.60;;
62332;SDS011;48624;49.812;8.562;2023-02-26T08:57:36;2.50;;;1.83;;
62332;SDS011;48624;49.812;8.562;2023-02-26T09:00:03;2.70;;;1.53;;
62332;SDS011;48624;49.812;8.562;2023-02-26T09:02:29;1.93;;;1.20;;
62332;SDS011;48624;49.812;8.562;2023-02-26T09:04:55;3.27;;;1.23;;
62332;SDS011;48624;49.812;8.562;2023-02-26T09:07:20;2.30;;;1.20;;
62332;SDS011;48624;49.812;8.562;2023-02-26T09:09:46;1.40;;;0.80;;
62332;SDS011;48624;49.812;8.562;2023-02-26T09:12:11;3.47;;;1.17;;
62332;SDS011;48624;49.812;8.562;2023-02-26T09:14:36;0.77;;;0.77;;
62332;SDS011;48624;49.812;8.562;2023-02-26T09:17:02;3.40;;;1.10;;
62332;SDS011;48624;49.812;8.562;2023-02-26T09:19:27;1.33;;;1.07;;
62332;SDS011;48624;49.812;8.562;2023-02-26T09:21:52;2.37;;;0.90;;
62332;SDS011;48624;49.812;8.562;2023-02-26T09:24:20;1.40;;;0.60;;
62332;SDS011;48624;49.812;8.562;2023-02-26T09:26:46;1.17;;;0.90;;
62332;SDS011;48624;49.812;8.562;2023-02-26T09:29:11;0.60;;;0.60;;
62332;SDS011;48624;49.812;8.562;2023-02-26T09:31:38;1.57;;;1.07;;
62332;SDS011;48624;49.812;8.562;2023-02-26T09:34:03;0.93;;;0.60;;
62332;SDS011;48624;49.812;8.562;2023-02-26T09:36:29;1.37;;;0.60;;
62332;SDS011;48624;49.812;8.562;2023-02-26T09:38:55;2.63;;;0.80;;
62332;SDS011;48624;49.812;8.562;2023-02-26T09:41:29;2.53;;;1.03;;
62332;SDS011;48624;49.812;8.562;2023-02-26T09:46:44;0.77;;;0.60;;
62332;SDS011;48624;49.812;8.562;2023-02-26T09:49:29;1.23;;;0.63;;
62332;SDS011;48624;49.812;8.562;2023-02-26T09:52:03;1.90;;;0.77;;
62332;SDS011;48624;49.812;8.562;2023-02-26T09:54:33;4.50;;;1.93;;
62332;SDS011;48624;49.812;8.562;2023-02-26T09:57:05;2.47;;;0.60;;
62332;SDS011;48624;49.812;8.562;2023-02-26T09:59:42;1.13;;;0.53;;
62332;SDS011;48624;49.812;8.562;2023-02-26T10:04:49;1.23;;;0.50;;
62332;SDS011;48624;49.812;8.562;2023-02-26T10:07:29;0.80;;;0.40;;
62332;SDS011;48624;49.812;8.562;2023-02-26T10:10:14;3.23;;;1.43;;
62332;SDS011;48624;49.812;8.562;2023-02-26T10:12:47;1.60;;;0.50;;
62332;SDS011;48624;49.812;8.562;2023-02-26T10:15:27;1.90;;;0.70;;
62332;SDS011;48624;49.812;8.562;2023-02-26T10:17:58;0.87;;;0.63;;
62332;SDS011;48624;49.812;8.562;2023-02-26T10:20:30;1.43;;;0.80;;
62332;SDS011;48624;49.812;8.562;2023-02-26T10:23:06;2.00;;;0.60;;
62332;SDS011;48624;49.812;8.562;2023-02-26T10:25:46;1.00;;;0.60;;
62332;SDS011;48624;49.812;8.562;2023-02-26T10:28:23;0.47;;;0.33;;
62332;SDS011;48624;49.812;8.562;2023-02-26T10:31:05;1.07;;;0.50;;
62332;SDS011;48624;49.812;8.562;2023-02-26T10:36:46;1.33;;;0.77;;
62332;SDS011;48624;49.812;8.562;2023-02-26T10:39:23;1.50;;;0.57;;
62332;SDS011;48624;49.812;8.562;2023-02-26T10:41:58;2.93;;;0.90;;
62332;SDS011;48624;49.812;8.562;2023-02-26T10:47:17;0.87;;;0.50;;
62332;SDS011;48624;49.812;8.562;2023-02-26T10:49:58;0.87;;;0.60;;
62332;SDS011;48624;49.812;8.562;2023-02-26T10:52:30;1.63;;;0.40;;
62332;SDS011;48624;49.812;8.562;2023-02-26T10:57:34;1.30;;;0.70;;
62332;SDS011;48624;49.812;8.562;2023-02-26T11:00:05;1.27;;;0.60;;
62332;SDS011;48624;49.812;8.562;2023-02-26T11:05:06;5.82;;;2.22;;
62332;SDS011;48624;49.812;8.562;2023-02-26T11:07:39;4.17;;;1.67;;
62332;SDS011;48624;49.812;8.562;2023-02-26T11:10:11;0.80;;;0.60;;
62332;SDS011;48624;49.812;8.562;2023-02-26T11:12:39;4.47;;;0.90;;
62332;SDS011;48624;49.812;8.562;2023-02-26T11:15:05;2.10;;;0.90;;
62332;SDS011;48624;49.812;8.562;2023-02-26T11:17:30;3.20;;;1.07;;
62332;SDS011;48624;49.812;8.562;2023-02-26T11:20:23;10.87;;;1.73;;
62332;SDS011;48624;49.812;8.562;2023-02-26T11:22:45;0.97;;;0.53;;
62332;SDS011;48624;49.812;8.562;2023-02-26T11:25:13;1.77;;;0.97;;
62332;SDS011;48624;49.812;8.562;2023-02-26T11:27:43;2.70;;;0.40;;
62332;SDS011;48624;49.812;8.562;2023-02-26T11:32:43;1.43;;;0.77;;
62332;SDS011;48624;49.812;8.562;2023-02-26T11:35:12;0.53;;;0.40;;
62332;SDS011;48624;49.812;8.562;2023-02-26T11:37:39;1.03;;;0.60;;
62332;SDS011;48624;49.812;8.562;2023-02-26T11:40:17;1.43;;;0.50;;
62332;SDS011;48624;49.812;8.562;2023-02-26T11:42:52;1.20;;;0.60;;
62332;SDS011;48624;49.812;8.562;2023-02-26T11:45:20;0.90;;;0.70;;
62332;SDS011;48624;49.812;8.562;2023-02-26T11:47:48;0.60;;;0.40;;
62332;SDS011;48624;49.812;8.562;2023-02-26T11:50:21;0.83;;;0.20;;
62332;SDS011;48624;49.812;8.562;2023-02-26T11:52:54;1.50;;;0.70;;
62332;SDS011;48624;49.812;8.562;2023-02-26T11:55:26;0.70;;;0.70;;
62332;SDS011;48624;49.812;8.562;2023-02-26T11:57:53;0.37;;;0.33;;
62332;SDS011;48624;49.812;8.562;2023-02-26T12:02:55;1.33;;;0.77;;
62332;SDS011;48624;49.812;8.562;2023-02-26T12:05:24;1.43;;;0.50;;
62332;SDS011;48624;49.812;8.562;2023-02-26T12:07:50;1.17;;;0.63;;
62332;SDS011;48624;49.812;8.562;2023-02-26T12:10:24;2.03;;;0.27;;
62332;SDS011;48624;49.812;8.562;2023-02-26T12:13:02;2.20;;;0.40;;
62332;SDS011;48624;49.812;8.562;2023-02-26T12:15:54;1.07;;;0.53;;
62332;SDS011;48624;49.812;8.562;2023-02-26T12:18:36;1.47;;;0.67;;
62332;SDS011;48624;49.812;8.562;2023-02-26T12:21:51;1.20;;;1.05;;
62332;SDS011;48624;49.812;8.562;2023-02-26T12:32:40;0.20;;;0.20;;
62332;SDS011;48624;49.812;8.562;2023-02-26T12:38:04;0.82;;;0.30;;
62332;SDS011;48624;49.812;8.562;2023-02-26T12:46:25;2.08;;;0.50;;
62332;SDS011;48624;49.812;8.562;2023-02-26T12:54:59;1.63;;;0.40;;
62332;SDS011;48624;49.812;8.562;2023-02-26T13:14:47;1.45;;;0.47;;
62332;SDS011;48624;49.812;8.562;2023-02-26T13:20:16;0.50;;;0.30;;
62332;SDS011;48624;49.812;8.562;2023-02-26T13:22:47;0.28;;;0.17;;
62332;SDS011;48624;49.812;8.562;2023-02-26T13:27:47;0.20;;;0.20;;
62332;SDS011;48624;49.812;8.562;2023-02-26T13:30:17;0.30;;;0.10;;
62332;SDS011;48624;49.812;8.562;2023-02-26T13:32:48;0.20;;;0.20;;
62332;SDS011;48624;49.812;8.562;2023-02-26T13:35:18;1.27;;;0.30;;
62332;SDS011;48624;49.812;8.562;2023-02-26T13:37:53;0.30;;;0.20;;
62332;SDS011;48624;49.812;8.562;2023-02-26T13:43:24;0.50;;;0.20;;
62332;SDS011;48624;49.812;8.562;2023-02-26T13:46:08;0.57;;;0.57;;
62332;SDS011;48624;49.812;8.562;2023-02-26T13:48:51;0.50;;;0.40;;
62332;SDS011;48624;49.812;8.562;2023-02-26T13:51:51;0.20;;;0.20;;
62332;SDS011;48624;49.812;8.562;2023-02-26T13:56:47;1.08;;;0.50;;
62332;SDS011;48624;49.812;8.562;2023-02-26T13:59:44;0.37;;;0.20;;
62332;SDS011;48624;49.812;8.562;2023-02-26T14:05:05;0.70;;;0.23;;
62332;SDS011;48624;49.812;8.562;2023-02-26T14:07:46;0.43;;;0.20;;
62332;SDS011;48624;49.812;8.562;2023-02-26T14:10:22;0.37;;;0.20;;
62332;SDS011;48624;49.812;8.562;2023-02-26T14:13:02;2.77;;;0.60;;
62332;SDS011;48624;49.812;8.562;2023-02-26T14:15:49;0.97;;;0.50;;
62332;SDS011;48624;49.812;8.562;2023-02-26T14:26:50;0.90;;;0.30;;
62332;SDS011;48624;49.812;8.562;2023-02-26T14:29:37;0.70;;;0.27;;
62332;SDS011;48624;49.812;8.562;2023-02-26T14:34:30;0.10;;;0.10;;
62332;SDS011;48624;49.812;8.562;2023-02-26T14:37:01;0.30;;;0.30;;
62332;SDS011;48624;49.812;8.562;2023-02-26T14:42:27;0.43;;;0.27;;
62332;SDS011;48624;49.812;8.562;2023-02-26T14:45:42;0.23;;;0.20;;
62332;SDS011;48624;49.812;8.562;2023-02-26T14:48:06;1.93;;;0.17;;
62332;SDS011;48624;49.812;8.562;2023-02-26T14:53:32;0.60;;;0.40;;
62332;SDS011;48624;49.812;8.562;2023-02-26T14:56:28;0.57;;;0.27;;
62332;SDS011;48624;49.812;8.562;2023-02-26T15:01:49;1.43;;;0.60;;
62332;SDS011;48624;49.812;8.562;2023-02-26T15:09:22;1.93;;;0.50;;
62332;SDS011;48624;49.812;8.562;2023-02-26T15:14:32;0.40;;;0.20;;
62332;SDS011;48624;49.812;8.562;2023-02-26T15:17:16;1.90;;;0.93;;
62332;SDS011;48624;49.812;8.562;2023-02-26T15:25:22;1.37;;;0.20;;
62332;SDS011;48624;49.812;8.562;2023-02-26T15:27:54;2.20;;;0.90;;
62332;SDS011;48624;49.812;8.562;2023-02-26T15:30:21;0.80;;;0.30;;
62332;SDS011;48624;49.812;8.562;2023-02-26T15:32:47;1.53;;;0.33;;
62332;SDS011;48624;49.812;8.562;2023-02-26T15:35:14;0.70;;;0.40;;
62332;SDS011;48624;49.812;8.562;2023-02-26T15:37:41;1.03;;;0.67;;
62332;SDS011;48624;49.812;8.562;2023-02-26T15:40:07;0.98;;;0.20;;
62332;SDS011;48624;49.812;8.562;2023-02-26T15:42:34;0.80;;;0.50;;
62332;SDS011;48624;49.812;8.562;2023-02-26T15:45:03;0.50;;;0.30;;
62332;SDS011;48624;49.812;8.562;2023-02-26T15:47:34;0.90;;;0.33;;
62332;SDS011;48624;49.812;8.562;2023-02-26T15:50:01;5.20;;;2.13;;
62332;SDS011;48624;49.812;8.562;2023-02-26T15:52:27;0.67;;;0.40;;
62332;SDS011;48624;49.812;8.562;2023-02-26T15:54:54;0.30;;;0.30;;
62332;SDS011;48624;49.812;8.562;2023-02-26T15:57:24;1.30;;;0.50;;
62332;SDS011;48624;49.812;8.562;2023-02-26T15:59:52;0.47;;;0.20;;
62332;SDS011;48624;49.812;8.562;2023-02-26T16:02:29;0.77;;;0.50;;
62332;SDS011;48624;49.812;8.562;2023-02-26T16:04:56;4.30;;;0.60;;
62332;SDS011;48624;49.812;8.562;2023-02-26T16:07:21;0.43;;;0.23;;
62332;SDS011;48624;49.812;8.562;2023-02-26T16:09:48;2.13;;;0.50;;
62332;SDS011;48624;49.812;8.562;2023-02-26T16:12:30;2.20;;;0.50;;
62332;SDS011;48624;49.812;8.562;2023-02-26T16:15:03;1.23;;;0.50;;
62332;SDS011;48624;49.812;8.562;2023-02-26T16:17:39;1.43;;;0.60;;
62332;SDS011;48624;49.812;8.562;2023-02-26T16:20:12;1.17;;;0.30;;
62332;SDS011;48624;49.812;8.562;2023-02-26T16:22:41;1.33;;;0.50;;
62332;SDS011;48624;49.812;8.562;2023-02-26T16:25:34;1.00;;;0.50;;
62332;SDS011;48624;49.812;8.562;2023-02-26T16:28:04;1.67;;;0.70;;
62332;SDS011;48624;49.812;8.562;2023-02-26T16:30:36;0.60;;;0.40;;
62332;SDS011;48624;49.812;8.562;2023-02-26T16:33:09;0.93;;;0.57;;
62332;SDS011;48624;49.812;8.562;2023-02-26T16:35:38;0.90;;;0.40;;
62332;SDS011;48624;49.812;8.562;2023-02-26T16:40:46;0.80;;;0.33;;
62332;SDS011;48624;49.812;8.562;2023-02-26T16:43:33;0.50;;;0.30;;
62332;SDS011;48624;49.812;8.562;2023-02-26T16:46:05;0.97;;;0.37;;
62332;SDS011;48624;49.812;8.562;2023-02-26T16:48:41;2.37;;;0.50;;
62332;SDS011;48624;49.812;8.562;2023-02-26T16:51:15;4.90;;;1.67;;
62332;SDS011;48624;49.812;8.562;2023-02-26T16:54:28;2.37;;;0.90;;
62332;SDS011;48624;49.812;8.562;2023-02-26T16:56:48;1.80;;;0.53;;
62332;SDS011;48624;49.812;8.562;2023-02-26T16:59:24;1.10;;;0.33;;
62332;SDS011;48624;49.812;8.562;2023-02-26T17:01:55;1.57;;;0.40;;
62332;SDS011;48624;49.812;8.562;2023-02-26T17:04:35;1.90;;;0.40;;
62332;SDS011;48624;49.812;8.562;2023-02-26T17:07:04;1.70;;;0.33;;
62332;SDS011;48624;49.812;8.562;2023-02-26T17:09:40;0.70;;;0.40;;
62332;SDS011;48624;49.812;8.562;2023-02-26T17:12:15;0.40;;;0.40;;
62332;SDS011;48624;49.812;8.562;2023-02-26T17:15:11;0.30;;;0.20;;
62332;SDS011;48624;49.812;8.562;2023-02-26T17:17:39;1.00;;;0.53;;
62332;SDS011;48624;49.812;8.562;2023-02-26T17:20:05;0.70;;;0.40;;
62332;SDS011;48624;49.812;8.562;2023-02-26T17:22:30;0.90;;;0.57;;
62332;SDS011;48624;49.812;8.562;2023-02-26T17:24:55;1.00;;;0.40;;
62332;SDS011;48624;49.812;8.562;2023-02-26T17:27:29;0.40;;;0.33;;
62332;SDS011;48624;49.812;8.562;2023-02-26T17:29:58;1.20;;;0.40;;
62332;SDS011;48624;49.812;8.562;2023-02-26T17:32:25;1.13;;;0.40;;
62332;SDS011;48624;49.812;8.562;2023-02-26T17:34:53;3.57;;;0.80;;
62332;SDS011;48624;49.812;8.562;2023-02-26T17:37:19;1.77;;;0.60;;
62332;SDS011;48624;49.812;8.562;2023-02-26T17:39:46;1.87;;;0.53;;
62332;SDS011;48624;49.812;8.562;2023-02-26T17:42:16;0.93;;;0.50;;